sensor_id;sensor_type;location;lat;lon;timestamp;P1;durP1;ratioP1;P2;durP2;ratioP2
18532;SDS011;9396;51.510;11.934;2022-08-01T00:01:31;5.30;;;2.80;;
18532;SDS011;9396;51.510;11.934;2022-08-01T00:03:58;3.50;;;3.20;;
18532;SDS011;9396;51.510;11.934;2022-08-01T00:06:26;3.53;;;3.23;;
18532;SDS011;9396;51.510;11.934;2022-08-01T00:08:53;3.33;;;2.93;;
18532;SDS011;9396;51.510;11.934;2022-08-01T00:11:20;3.43;;;3.00;;
18532;SDS011;9396;51.510;11.934;2022-08-01T00:13:47;7.00;;;3.50;;
18532;SDS011;9396;51.510;11.934;2022-08-01T00:16:14;4.67;;;3.10;;
18532;SDS011;9396;51.510;11.934;2022-08-01T00:18:40;3.83;;;2.43;;
18532;SDS011;9396;51.510;11.934;2022-08-01T00:21:07;3.67;;;2.57;;
18532;SDS011;9396;51.510;11.934;2022-08-01T00:23:35;3.60;;;2.73;;
18532;SDS011;9396;51.510;11.934;2022-08-01T00:26:02;3.50;;;3.20;;
18532;SDS011;9396;51.510;11.934;2022-08-01T00:28:28;3.10;;;2.80;;
18532;SDS011;9396;51.510;11.934;2022-08-01T00:30:55;3.87;;;2.87;;
18532;SDS011;9396;51.510;11.934;2022-08-01T00:33:22;3.53;;;3.13;;
18532;SDS011;9396;51.510;11.934;2022-08-01T00:35:49;3.63;;;2.97;;
18532;SDS011;9396;51.510;11.934;2022-08-01T00:38:15;3.10;;;2.70;;
18532;SDS011;9396;51.510;11.934;2022-08-01T00:40:43;3.20;;;2.90;;
18532;SDS011;9396;51.510;11.934;2022-08-01T00:43:10;4.47;;;3.10;;
18532;SDS011;9396;51.510;11.934;2022-08-01T00:45:37;4.80;;;3.47;;
18532;SDS011;9396;51.510;11.934;2022-08-01T00:48:03;3.47;;;3.10;;
18532;SDS011;9396;51.510;11.934;2022-08-01T00:50:30;4.37;;;2.90;;
18532;SDS011;9396;51.510;11.934;2022-08-01T00:52:57;3.10;;;2.90;;
18532;SDS011;9396;51.510;11.934;2022-08-01T00:55:25;6.13;;;3.10;;
18532;SDS011;9396;51.510;11.934;2022-08-01T00:57:54;3.80;;;3.20;;
18532;SDS011;9396;51.510;11.934;2022-08-01T01:00:21;8.40;;;3.57;;
18532;SDS011;9396;51.510;11.934;2022-08-01T01:02:48;5.73;;;3.00;;
18532;SDS011;9396;51.510;11.934;2022-08-01T01:05:15;3.47;;;3.03;;
18532;SDS011;9396;51.510;11.934;2022-08-01T01:07:44;3.97;;;2.93;;
18532;SDS011;9396;51.510;11.934;2022-08-01T01:10:15;5.40;;;3.13;;
18532;SDS011;9396;51.510;11.934;2022-08-01T01:12:47;4.37;;;3.30;;
18532;SDS011;9396;51.510;11.934;2022-08-01T01:15:22;4.17;;;3.23;;
18532;SDS011;9396;51.510;11.934;2022-08-01T01:17:54;3.50;;;3.20;;
18532;SDS011;9396;51.510;11.934;2022-08-01T01:20:26;3.67;;;3.30;;
18532;SDS011;9396;51.510;11.934;2022-08-01T01:23:06;4.60;;;2.87;;
18532;SDS011;9396;51.510;11.934;2022-08-01T01:25:42;4.43;;;3.03;;
18532;SDS011;9396;51.510;11.934;2022-08-01T01:28:20;3.93;;;3.17;;
18532;SDS011;9396;51.510;11.934;2022-08-01T01:30:55;3.73;;;2.83;;
18532;SDS011;9396;51.510;11.934;2022-08-01T01:33:25;8.80;;;3.03;;
18532;SDS011;9396;51.510;11.934;2022-08-01T01:35:57;3.70;;;3.00;;
18532;SDS011;9396;51.510;11.934;2022-08-01T01:38:28;4.30;;;2.83;;
18532;SDS011;9396;51.510;11.934;2022-08-01T01:40:58;2.87;;;2.57;;
18532;SDS011;9396;51.510;11.934;2022-08-01T01:43:27;4.10;;;3.33;;
18532;SDS011;9396;51.510;11.934;2022-08-01T01:45:56;5.27;;;3.17;;
18532;SDS011;9396;51.510;11.934;2022-08-01T01:48:23;2.93;;;2.63;;
18532;SDS011;9396;51.510;11.934;2022-08-01T01:50:51;5.93;;;2.70;;
18532;SDS011;9396;51.510;11.934;2022-08-01T01:53:19;3.73;;;2.80;;
18532;SDS011;9396;51.510;11.934;2022-08-01T01:55:48;3.80;;;2.93;;
18532;SDS011;9396;51.510;11.934;2022-08-01T01:58:19;2.93;;;2.70;;
18532;SDS011;9396;51.510;11.934;2022-08-01T02:00:47;4.20;;;2.50;;
18532;SDS011;9396;51.510;11.934;2022-08-01T02:03:17;3.73;;;2.70;;
18532;SDS011;9396;51.510;11.934;2022-08-01T02:05:45;3.17;;;2.83;;
18532;SDS011;9396;51.510;11.934;2022-08-01T02:08:14;3.03;;;2.73;;
18532;SDS011;9396;51.510;11.934;2022-08-01T02:10:42;3.30;;;2.77;;
18532;SDS011;9396;51.510;11.934;2022-08-01T02:13:32;5.50;;;3.00;;
18532;SDS011;9396;51.510;11.934;2022-08-01T02:16:01;2.97;;;2.67;;
18532;SDS011;9396;51.510;11.934;2022-08-01T02:18:31;2.87;;;2.57;;
18532;SDS011;9396;51.510;11.934;2022-08-01T02:20:58;3.13;;;2.83;;
18532;SDS011;9396;51.510;11.934;2022-08-01T02:23:27;5.33;;;2.83;;
18532;SDS011;9396;51.510;11.934;2022-08-01T02:25:57;3.97;;;2.80;;
18532;SDS011;9396;51.510;11.934;2022-08-01T02:28:29;3.03;;;2.73;;
18532;SDS011;9396;51.510;11.934;2022-08-01T02:31:01;5.30;;;3.00;;
18532;SDS011;9396;51.510;11.934;2022-08-01T02:33:34;3.20;;;2.90;;
18532;SDS011;9396;51.510;11.934;2022-08-01T02:36:04;3.47;;;2.77;;
18532;SDS011;9396;51.510;11.934;2022-08-01T02:38:33;2.60;;;2.40;;
18532;SDS011;9396;51.510;11.934;2022-08-01T02:41:04;4.33;;;2.40;;
18532;SDS011;9396;51.510;11.934;2022-08-01T02:43:35;5.47;;;2.50;;
18532;SDS011;9396;51.510;11.934;2022-08-01T02:46:06;2.73;;;2.33;;
18532;SDS011;9396;51.510;11.934;2022-08-01T02:48:39;4.80;;;2.77;;
18532;SDS011;9396;51.510;11.934;2022-08-01T02:51:08;3.20;;;2.90;;
18532;SDS011;9396;51.510;11.934;2022-08-01T02:53:36;2.90;;;2.60;;
18532;SDS011;9396;51.510;11.934;2022-08-01T02:56:07;3.30;;;2.83;;
18532;SDS011;9396;51.510;11.934;2022-08-01T02:58:34;8.10;;;2.63;;
18532;SDS011;9396;51.510;11.934;2022-08-01T03:01:03;2.67;;;2.40;;
18532;SDS011;9396;51.510;11.934;2022-08-01T03:03:31;3.63;;;2.70;;
18532;SDS011;9396;51.510;11.934;2022-08-01T03:06:00;3.73;;;2.80;;
18532;SDS011;9396;51.510;11.934;2022-08-01T03:08:28;3.33;;;2.43;;
18532;SDS011;9396;51.510;11.934;2022-08-01T03:10:56;4.20;;;2.60;;
18532;SDS011;9396;51.510;11.934;2022-08-01T03:13:25;4.00;;;3.00;;
18532;SDS011;9396;51.510;11.934;2022-08-01T03:15:53;3.40;;;2.63;;
18532;SDS011;9396;51.510;11.934;2022-08-01T03:18:21;2.70;;;2.50;;
18532;SDS011;9396;51.510;11.934;2022-08-01T03:20:52;3.60;;;2.67;;
18532;SDS011;9396;51.510;11.934;2022-08-01T03:23:22;2.93;;;2.50;;
18532;SDS011;9396;51.510;11.934;2022-08-01T03:25:50;4.10;;;2.17;;
18532;SDS011;9396;51.510;11.934;2022-08-01T03:28:18;3.60;;;2.30;;
18532;SDS011;9396;51.510;11.934;2022-08-01T03:30:48;2.20;;;2.00;;
18532;SDS011;9396;51.510;11.934;2022-08-01T03:33:15;2.40;;;2.20;;
18532;SDS011;9396;51.510;11.934;2022-08-01T03:35:45;4.00;;;2.70;;
18532;SDS011;9396;51.510;11.934;2022-08-01T03:38:16;4.10;;;2.03;;
18532;SDS011;9396;51.510;11.934;2022-08-01T03:40:47;12.07;;;2.30;;
18532;SDS011;9396;51.510;11.934;2022-08-01T03:43:19;2.37;;;2.17;;
18532;SDS011;9396;51.510;11.934;2022-08-01T03:45:52;2.67;;;2.10;;
18532;SDS011;9396;51.510;11.934;2022-08-01T03:48:20;2.20;;;1.90;;
18532;SDS011;9396;51.510;11.934;2022-08-01T03:50:52;2.43;;;2.20;;
18532;SDS011;9396;51.510;11.934;2022-08-01T03:53:20;5.00;;;2.27;;
18532;SDS011;9396;51.510;11.934;2022-08-01T03:55:50;3.17;;;2.37;;
18532;SDS011;9396;51.510;11.934;2022-08-01T03:58:20;4.97;;;2.40;;
18532;SDS011;9396;51.510;11.934;2022-08-01T04:00:47;2.73;;;1.90;;
18532;SDS011;9396;51.510;11.934;2022-08-01T04:03:15;3.40;;;2.10;;
18532;SDS011;9396;51.510;11.934;2022-08-01T04:05:42;3.13;;;1.90;;
18532;SDS011;9396;51.510;11.934;2022-08-01T04:08:09;2.80;;;2.17;;
18532;SDS011;9396;51.510;11.934;2022-08-01T04:10:36;2.80;;;2.07;;
18532;SDS011;9396;51.510;11.934;2022-08-01T04:13:04;2.10;;;1.90;;
18532;SDS011;9396;51.510;11.934;2022-08-01T04:15:31;4.90;;;2.00;;
18532;SDS011;9396;51.510;11.934;2022-08-01T04:17:58;4.23;;;2.00;;
18532;SDS011;9396;51.510;11.934;2022-08-01T04:20:24;2.23;;;1.97;;
18532;SDS011;9396;51.510;11.934;2022-08-01T04:22:51;3.53;;;2.00;;
18532;SDS011;9396;51.510;11.934;2022-08-01T04:25:19;2.37;;;2.00;;
18532;SDS011;9396;51.510;11.934;2022-08-01T04:27:51;3.63;;;2.10;;
18532;SDS011;9396;51.510;11.934;2022-08-01T04:30:22;3.43;;;2.00;;
18532;SDS011;9396;51.510;11.934;2022-08-01T04:32:52;2.93;;;1.80;;
18532;SDS011;9396;51.510;11.934;2022-08-01T04:35:21;3.70;;;2.00;;
18532;SDS011;9396;51.510;11.934;2022-08-01T04:37:50;2.93;;;1.60;;
18532;SDS011;9396;51.510;11.934;2022-08-01T04:40:18;1.90;;;1.60;;
18532;SDS011;9396;51.510;11.934;2022-08-01T04:42:47;2.20;;;2.00;;
18532;SDS011;9396;51.510;11.934;2022-08-01T04:45:14;2.37;;;1.63;;
18532;SDS011;9396;51.510;11.934;2022-08-01T04:47:43;1.93;;;1.50;;
18532;SDS011;9396;51.510;11.934;2022-08-01T04:50:12;2.30;;;1.80;;
18532;SDS011;9396;51.510;11.934;2022-08-01T04:52:39;4.47;;;1.97;;
18532;SDS011;9396;51.510;11.934;2022-08-01T04:55:08;2.37;;;1.70;;
18532;SDS011;9396;51.510;11.934;2022-08-01T04:57:36;2.87;;;2.20;;
18532;SDS011;9396;51.510;11.934;2022-08-01T05:00:06;1.90;;;1.77;;
18532;SDS011;9396;51.510;11.934;2022-08-01T05:02:33;2.23;;;1.77;;
18532;SDS011;9396;51.510;11.934;2022-08-01T05:05:01;2.27;;;1.67;;
18532;SDS011;9396;51.510;11.934;2022-08-01T05:07:31;1.67;;;1.57;;
18532;SDS011;9396;51.510;11.934;2022-08-01T05:09:58;2.43;;;1.50;;
18532;SDS011;9396;51.510;11.934;2022-08-01T05:12:26;3.70;;;1.67;;
18532;SDS011;9396;51.510;11.934;2022-08-01T05:14:53;2.27;;;1.73;;
18532;SDS011;9396;51.510;11.934;2022-08-01T05:17:19;1.83;;;1.70;;
18532;SDS011;9396;51.510;11.934;2022-08-01T05:19:46;2.33;;;1.50;;
18532;SDS011;9396;51.510;11.934;2022-08-01T05:22:14;2.50;;;1.63;;
18532;SDS011;9396;51.510;11.934;2022-08-01T05:24:41;5.27;;;1.90;;
18532;SDS011;9396;51.510;11.934;2022-08-01T05:27:08;2.73;;;1.60;;
18532;SDS011;9396;51.510;11.934;2022-08-01T05:29:35;4.00;;;1.70;;
18532;SDS011;9396;51.510;11.934;2022-08-01T05:32:02;3.67;;;1.63;;
18532;SDS011;9396;51.510;11.934;2022-08-01T05:34:29;1.63;;;1.50;;
18532;SDS011;9396;51.510;11.934;2022-08-01T05:36:55;1.60;;;1.43;;
18532;SDS011;9396;51.510;11.934;2022-08-01T05:39:23;2.20;;;1.90;;
18532;SDS011;9396;51.510;11.934;2022-08-01T05:41:50;1.63;;;1.50;;
18532;SDS011;9396;51.510;11.934;2022-08-01T05:44:17;3.30;;;1.73;;
18532;SDS011;9396;51.510;11.934;2022-08-01T05:46:43;1.63;;;1.53;;
18532;SDS011;9396;51.510;11.934;2022-08-01T05:49:11;2.73;;;1.47;;
18532;SDS011;9396;51.510;11.934;2022-08-01T05:51:38;2.63;;;1.20;;
18532;SDS011;9396;51.510;11.934;2022-08-01T05:54:04;4.87;;;1.80;;
18532;SDS011;9396;51.510;11.934;2022-08-01T05:56:32;2.53;;;1.20;;
18532;SDS011;9396;51.510;11.934;2022-08-01T05:58:59;1.23;;;1.13;;
18532;SDS011;9396;51.510;11.934;2022-08-01T06:01:26;1.20;;;1.10;;
18532;SDS011;9396;51.510;11.934;2022-08-01T06:03:52;1.50;;;1.40;;
18532;SDS011;9396;51.510;11.934;2022-08-01T06:06:19;1.73;;;1.13;;
18532;SDS011;9396;51.510;11.934;2022-08-01T06:08:46;2.07;;;1.50;;
18532;SDS011;9396;51.510;11.934;2022-08-01T06:11:13;1.27;;;1.10;;
18532;SDS011;9396;51.510;11.934;2022-08-01T06:13:41;1.40;;;1.23;;
18532;SDS011;9396;51.510;11.934;2022-08-01T06:16:08;1.27;;;1.17;;
18532;SDS011;9396;51.510;11.934;2022-08-01T06:18:34;1.30;;;1.20;;
18532;SDS011;9396;51.510;11.934;2022-08-01T06:21:01;1.03;;;0.90;;
18532;SDS011;9396;51.510;11.934;2022-08-01T06:23:28;1.20;;;1.10;;
18532;SDS011;9396;51.510;11.934;2022-08-01T06:25:55;0.93;;;0.90;;
18532;SDS011;9396;51.510;11.934;2022-08-01T06:28:23;0.87;;;0.87;;
18532;SDS011;9396;51.510;11.934;2022-08-01T06:30:51;1.10;;;1.00;;
18532;SDS011;9396;51.510;11.934;2022-08-01T06:33:18;1.13;;;1.00;;
18532;SDS011;9396;51.510;11.934;2022-08-01T06:35:45;1.83;;;1.07;;
18532;SDS011;9396;51.510;11.934;2022-08-01T06:38:12;2.53;;;0.97;;
18532;SDS011;9396;51.510;11.934;2022-08-01T06:40:39;1.83;;;1.03;;
18532;SDS011;9396;51.510;11.934;2022-08-01T06:43:05;3.07;;;1.30;;
18532;SDS011;9396;51.510;11.934;2022-08-01T06:45:32;2.23;;;1.33;;
18532;SDS011;9396;51.510;11.934;2022-08-01T06:48:03;2.00;;;1.47;;
18532;SDS011;9396;51.510;11.934;2022-08-01T06:50:30;2.63;;;1.10;;
18532;SDS011;9396;51.510;11.934;2022-08-01T06:52:57;1.40;;;1.00;;
18532;SDS011;9396;51.510;11.934;2022-08-01T06:55:23;3.70;;;1.10;;
18532;SDS011;9396;51.510;11.934;2022-08-01T06:57:50;1.13;;;1.00;;
18532;SDS011;9396;51.510;11.934;2022-08-01T07:00:19;1.17;;;1.00;;
18532;SDS011;9396;51.510;11.934;2022-08-01T07:02:48;1.20;;;0.93;;
18532;SDS011;9396;51.510;11.934;2022-08-01T07:05:16;0.93;;;0.90;;
18532;SDS011;9396;51.510;11.934;2022-08-01T07:07:43;1.10;;;1.00;;
18532;SDS011;9396;51.510;11.934;2022-08-01T07:10:10;1.23;;;0.90;;
18532;SDS011;9396;51.510;11.934;2022-08-01T07:12:37;2.40;;;1.00;;
18532;SDS011;9396;51.510;11.934;2022-08-01T07:15:05;1.70;;;1.17;;
18532;SDS011;9396;51.510;11.934;2022-08-01T07:17:35;2.73;;;1.00;;
18532;SDS011;9396;51.510;11.934;2022-08-01T07:20:03;1.13;;;0.80;;
18532;SDS011;9396;51.510;11.934;2022-08-01T07:22:32;2.40;;;0.83;;
18532;SDS011;9396;51.510;11.934;2022-08-01T07:24:58;1.17;;;0.80;;
18532;SDS011;9396;51.510;11.934;2022-08-01T07:27:25;1.73;;;0.90;;
18532;SDS011;9396;51.510;11.934;2022-08-01T07:29:52;1.10;;;1.00;;
18532;SDS011;9396;51.510;11.934;2022-08-01T07:32:18;0.93;;;0.80;;
18532;SDS011;9396;51.510;11.934;2022-08-01T07:34:45;1.37;;;0.83;;
18532;SDS011;9396;51.510;11.934;2022-08-01T07:37:12;1.17;;;0.80;;
18532;SDS011;9396;51.510;11.934;2022-08-01T07:39:40;1.47;;;0.80;;
18532;SDS011;9396;51.510;11.934;2022-08-01T07:42:07;0.60;;;0.60;;
18532;SDS011;9396;51.510;11.934;2022-08-01T07:44:33;1.03;;;0.90;;
18532;SDS011;9396;51.510;11.934;2022-08-01T07:47:00;1.10;;;0.83;;
18532;SDS011;9396;51.510;11.934;2022-08-01T07:49:27;0.70;;;0.60;;
18532;SDS011;9396;51.510;11.934;2022-08-01T07:51:54;2.13;;;0.90;;
18532;SDS011;9396;51.510;11.934;2022-08-01T07:54:21;0.60;;;0.60;;
18532;SDS011;9396;51.510;11.934;2022-08-01T07:56:50;0.93;;;0.60;;
18532;SDS011;9396;51.510;11.934;2022-08-01T07:59:16;1.17;;;0.70;;
18532;SDS011;9396;51.510;11.934;2022-08-01T08:01:47;0.90;;;0.70;;
18532;SDS011;9396;51.510;11.934;2022-08-01T08:04:14;2.30;;;0.60;;
18532;SDS011;9396;51.510;11.934;2022-08-01T08:06:41;1.53;;;0.70;;
18532;SDS011;9396;51.510;11.934;2022-08-01T08:09:08;0.70;;;0.30;;
18532;SDS011;9396;51.510;11.934;2022-08-01T08:11:34;0.40;;;0.30;;
18532;SDS011;9396;51.510;11.934;2022-08-01T08:14:02;1.07;;;0.40;;
18532;SDS011;9396;51.510;11.934;2022-08-01T08:16:29;0.40;;;0.30;;
18532;SDS011;9396;51.510;11.934;2022-08-01T08:18:56;0.50;;;0.30;;
18532;SDS011;9396;51.510;11.934;2022-08-01T08:21:23;1.30;;;0.30;;
18532;SDS011;9396;51.510;11.934;2022-08-01T08:23:49;0.20;;;0.20;;
18532;SDS011;9396;51.510;11.934;2022-08-01T08:26:33;0.47;;;0.40;;
18532;SDS011;9396;51.510;11.934;2022-08-01T08:29:00;0.40;;;0.30;;
18532;SDS011;9396;51.510;11.934;2022-08-01T08:31:28;2.27;;;0.20;;
18532;SDS011;9396;51.510;11.934;2022-08-01T08:33:55;0.80;;;0.40;;
18532;SDS011;9396;51.510;11.934;2022-08-01T08:36:21;0.50;;;0.50;;
18532;SDS011;9396;51.510;11.934;2022-08-01T08:38:48;1.17;;;0.90;;
18532;SDS011;9396;51.510;11.934;2022-08-01T08:41:15;1.20;;;0.77;;
18532;SDS011;9396;51.510;11.934;2022-08-01T08:43:41;1.13;;;0.70;;
18532;SDS011;9396;51.510;11.934;2022-08-01T08:46:08;0.73;;;0.63;;
18532;SDS011;9396;51.510;11.934;2022-08-01T08:48:39;0.90;;;0.53;;
18532;SDS011;9396;51.510;11.934;2022-08-01T08:51:06;1.20;;;0.70;;
18532;SDS011;9396;51.510;11.934;2022-08-01T08:53:36;1.00;;;0.70;;
18532;SDS011;9396;51.510;11.934;2022-08-01T08:56:05;1.03;;;0.60;;
18532;SDS011;9396;51.510;11.934;2022-08-01T08:58:33;0.63;;;0.60;;
18532;SDS011;9396;51.510;11.934;2022-08-01T09:01:04;2.87;;;0.67;;
18532;SDS011;9396;51.510;11.934;2022-08-01T09:03:32;1.43;;;0.70;;
18532;SDS011;9396;51.510;11.934;2022-08-01T09:06:00;0.80;;;0.70;;
18532;SDS011;9396;51.510;11.934;2022-08-01T09:08:27;0.60;;;0.60;;
18532;SDS011;9396;51.510;11.934;2022-08-01T09:10:53;0.60;;;0.60;;
18532;SDS011;9396;51.510;11.934;2022-08-01T09:13:20;0.80;;;0.70;;
18532;SDS011;9396;51.510;11.934;2022-08-01T09:15:48;0.90;;;0.80;;
18532;SDS011;9396;51.510;11.934;2022-08-01T09:18:29;0.80;;;0.73;;
18532;SDS011;9396;51.510;11.934;2022-08-01T09:21:08;1.20;;;1.00;;
18532;SDS011;9396;51.510;11.934;2022-08-01T09:23:41;1.10;;;1.00;;
18532;SDS011;9396;51.510;11.934;2022-08-01T09:26:09;1.10;;;1.00;;
18532;SDS011;9396;51.510;11.934;2022-08-01T09:28:37;1.10;;;1.00;;
18532;SDS011;9396;51.510;11.934;2022-08-01T09:31:08;1.10;;;1.00;;
18532;SDS011;9396;51.510;11.934;2022-08-01T09:33:51;2.60;;;1.30;;
18532;SDS011;9396;51.510;11.934;2022-08-01T09:36:21;3.80;;;1.77;;
18532;SDS011;9396;51.510;11.934;2022-08-01T09:38:50;1.50;;;1.40;;
18532;SDS011;9396;51.510;11.934;2022-08-01T09:41:28;1.73;;;1.63;;
18532;SDS011;9396;51.510;11.934;2022-08-01T09:43:56;1.73;;;1.60;;
18532;SDS011;9396;51.510;11.934;2022-08-01T09:46:23;3.13;;;1.30;;
18532;SDS011;9396;51.510;11.934;2022-08-01T09:48:57;2.03;;;1.80;;
18532;SDS011;9396;51.510;11.934;2022-08-01T09:51:30;1.90;;;1.70;;
18532;SDS011;9396;51.510;11.934;2022-08-01T09:53:59;1.80;;;1.70;;
18532;SDS011;9396;51.510;11.934;2022-08-01T09:56:26;3.50;;;1.77;;
18532;SDS011;9396;51.510;11.934;2022-08-01T09:59:02;1.50;;;1.37;;
18532;SDS011;9396;51.510;11.934;2022-08-01T10:01:41;2.67;;;1.57;;
18532;SDS011;9396;51.510;11.934;2022-08-01T10:04:09;1.67;;;1.57;;
18532;SDS011;9396;51.510;11.934;2022-08-01T10:06:38;2.40;;;2.20;;
18532;SDS011;9396;51.510;11.934;2022-08-01T10:09:07;1.53;;;1.33;;
18532;SDS011;9396;51.510;11.934;2022-08-01T10:11:34;2.40;;;2.07;;
18532;SDS011;9396;51.510;11.934;2022-08-01T10:14:04;3.77;;;1.60;;
18532;SDS011;9396;51.510;11.934;2022-08-01T10:16:32;1.87;;;1.60;;
18532;SDS011;9396;51.510;11.934;2022-08-01T10:18:59;1.73;;;1.40;;
18532;SDS011;9396;51.510;11.934;2022-08-01T10:21:27;1.87;;;1.30;;
18532;SDS011;9396;51.510;11.934;2022-08-01T10:23:59;1.30;;;1.20;;
18532;SDS011;9396;51.510;11.934;2022-08-01T10:26:27;1.30;;;1.20;;
18532;SDS011;9396;51.510;11.934;2022-08-01T10:28:58;1.50;;;1.23;;
18532;SDS011;9396;51.510;11.934;2022-08-01T10:31:25;0.77;;;0.77;;
18532;SDS011;9396;51.510;11.934;2022-08-01T10:33:57;0.70;;;0.70;;
18532;SDS011;9396;51.510;11.934;2022-08-01T10:36:23;1.10;;;1.00;;
18532;SDS011;9396;51.510;11.934;2022-08-01T10:38:50;1.73;;;1.50;;
18532;SDS011;9396;51.510;11.934;2022-08-01T10:41:18;1.20;;;1.10;;
18532;SDS011;9396;51.510;11.934;2022-08-01T10:43:46;0.77;;;0.77;;
18532;SDS011;9396;51.510;11.934;2022-08-01T10:46:12;1.10;;;1.00;;
18532;SDS011;9396;51.510;11.934;2022-08-01T10:48:41;1.10;;;1.00;;
18532;SDS011;9396;51.510;11.934;2022-08-01T10:51:13;0.73;;;0.73;;
18532;SDS011;9396;51.510;11.934;2022-08-01T10:53:45;1.23;;;0.90;;
18532;SDS011;9396;51.510;11.934;2022-08-01T10:56:13;1.73;;;1.17;;
18532;SDS011;9396;51.510;11.934;2022-08-01T10:58:43;1.50;;;1.37;;
18532;SDS011;9396;51.510;11.934;2022-08-01T11:01:13;1.30;;;1.20;;
18532;SDS011;9396;51.510;11.934;2022-08-01T11:03:55;1.50;;;1.40;;
18532;SDS011;9396;51.510;11.934;2022-08-01T11:06:24;2.07;;;1.87;;
18532;SDS011;9396;51.510;11.934;2022-08-01T11:08:53;1.43;;;1.23;;
18532;SDS011;9396;51.510;11.934;2022-08-01T11:11:21;2.20;;;1.60;;
18532;SDS011;9396;51.510;11.934;2022-08-01T11:14:02;1.80;;;1.70;;
18532;SDS011;9396;51.510;11.934;2022-08-01T11:16:32;1.60;;;1.40;;
18532;SDS011;9396;51.510;11.934;2022-08-01T11:19:00;3.97;;;1.93;;
18532;SDS011;9396;51.510;11.934;2022-08-01T11:27:25;1.27;;;1.17;;
18532;SDS011;9396;51.510;11.934;2022-08-01T11:32:51;1.20;;;1.10;;
18532;SDS011;9396;51.510;11.934;2022-08-01T11:35:20;1.30;;;1.20;;
18532;SDS011;9396;51.510;11.934;2022-08-01T11:37:48;1.10;;;1.00;;
18532;SDS011;9396;51.510;11.934;2022-08-01T11:40:18;1.00;;;0.90;;
18532;SDS011;9396;51.510;11.934;2022-08-01T11:42:46;1.53;;;1.30;;
18532;SDS011;9396;51.510;11.934;2022-08-01T11:45:13;1.17;;;0.87;;
18532;SDS011;9396;51.510;11.934;2022-08-01T11:47:45;1.20;;;1.10;;
18532;SDS011;9396;51.510;11.934;2022-08-01T11:52:59;1.30;;;1.20;;
18532;SDS011;9396;51.510;11.934;2022-08-01T11:55:27;1.07;;;1.03;;
18532;SDS011;9396;51.510;11.934;2022-08-01T11:58:01;1.30;;;1.20;;
18532;SDS011;9396;51.510;11.934;2022-08-01T12:00:29;1.17;;;1.07;;
18532;SDS011;9396;51.510;11.934;2022-08-01T12:02:58;1.30;;;1.10;;
18532;SDS011;9396;51.510;11.934;2022-08-01T12:05:26;1.43;;;1.33;;
18532;SDS011;9396;51.510;11.934;2022-08-01T12:07:54;1.33;;;1.13;;
18532;SDS011;9396;51.510;11.934;2022-08-01T12:10:22;1.23;;;1.13;;
18532;SDS011;9396;51.510;11.934;2022-08-01T12:12:50;1.50;;;1.40;;
18532;SDS011;9396;51.510;11.934;2022-08-01T12:15:19;2.63;;;1.40;;
18532;SDS011;9396;51.510;11.934;2022-08-01T12:17:48;2.07;;;1.40;;
18532;SDS011;9396;51.510;11.934;2022-08-01T12:20:20;1.10;;;0.97;;
18532;SDS011;9396;51.510;11.934;2022-08-01T12:22:52;0.93;;;0.93;;
18532;SDS011;9396;51.510;11.934;2022-08-01T12:25:19;0.93;;;0.87;;
18532;SDS011;9396;51.510;11.934;2022-08-01T12:27:46;2.73;;;0.80;;
18532;SDS011;9396;51.510;11.934;2022-08-01T12:30:14;1.37;;;1.17;;
18532;SDS011;9396;51.510;11.934;2022-08-01T12:32:41;1.50;;;1.33;;
18532;SDS011;9396;51.510;11.934;2022-08-01T12:35:10;1.20;;;1.10;;
18532;SDS011;9396;51.510;11.934;2022-08-01T12:37:40;1.07;;;0.90;;
18532;SDS011;9396;51.510;11.934;2022-08-01T12:40:09;1.10;;;0.90;;
18532;SDS011;9396;51.510;11.934;2022-08-01T12:42:38;0.93;;;0.80;;
18532;SDS011;9396;51.510;11.934;2022-08-01T12:45:07;0.80;;;0.80;;
18532;SDS011;9396;51.510;11.934;2022-08-01T12:47:35;0.80;;;0.80;;
18532;SDS011;9396;51.510;11.934;2022-08-01T12:50:03;1.47;;;0.90;;
18532;SDS011;9396;51.510;11.934;2022-08-01T12:52:32;1.13;;;0.90;;
18532;SDS011;9396;51.510;11.934;2022-08-01T12:55:01;1.07;;;0.97;;
18532;SDS011;9396;51.510;11.934;2022-08-01T12:57:37;1.00;;;0.90;;
18532;SDS011;9396;51.510;11.934;2022-08-01T13:00:06;0.90;;;0.90;;
18532;SDS011;9396;51.510;11.934;2022-08-01T13:02:35;1.30;;;1.10;;
18532;SDS011;9396;51.510;11.934;2022-08-01T13:05:02;1.10;;;0.93;;
18532;SDS011;9396;51.510;11.934;2022-08-01T13:07:40;0.90;;;0.90;;
18532;SDS011;9396;51.510;11.934;2022-08-01T13:10:11;0.73;;;0.73;;
18532;SDS011;9396;51.510;11.934;2022-08-01T13:12:39;1.67;;;1.00;;
18532;SDS011;9396;51.510;11.934;2022-08-01T13:15:17;1.13;;;0.80;;
18532;SDS011;9396;51.510;11.934;2022-08-01T13:17:46;0.90;;;0.80;;
18532;SDS011;9396;51.510;11.934;2022-08-01T13:20:28;1.03;;;0.93;;
18532;SDS011;9396;51.510;11.934;2022-08-01T13:23:09;0.83;;;0.83;;
18532;SDS011;9396;51.510;11.934;2022-08-01T13:25:47;1.10;;;1.00;;
18532;SDS011;9396;51.510;11.934;2022-08-01T13:28:15;2.50;;;1.07;;
18532;SDS011;9396;51.510;11.934;2022-08-01T13:30:50;1.10;;;0.90;;
18532;SDS011;9396;51.510;11.934;2022-08-01T13:33:18;1.33;;;1.13;;
18532;SDS011;9396;51.510;11.934;2022-08-01T13:35:45;1.10;;;1.00;;
18532;SDS011;9396;51.510;11.934;2022-08-01T13:38:12;1.50;;;1.30;;
18532;SDS011;9396;51.510;11.934;2022-08-01T13:40:39;1.50;;;1.40;;
18532;SDS011;9396;51.510;11.934;2022-08-01T13:43:07;1.90;;;1.63;;
18532;SDS011;9396;51.510;11.934;2022-08-01T13:45:34;1.90;;;1.70;;
18532;SDS011;9396;51.510;11.934;2022-08-01T13:48:00;2.43;;;2.07;;
18532;SDS011;9396;51.510;11.934;2022-08-01T13:50:27;1.90;;;1.80;;
18532;SDS011;9396;51.510;11.934;2022-08-01T13:52:54;1.87;;;1.77;;
18532;SDS011;9396;51.510;11.934;2022-08-01T13:55:20;2.37;;;2.03;;
18532;SDS011;9396;51.510;11.934;2022-08-01T13:57:47;1.73;;;1.60;;
18532;SDS011;9396;51.510;11.934;2022-08-01T14:00:16;2.40;;;2.20;;
18532;SDS011;9396;51.510;11.934;2022-08-01T14:02:43;2.30;;;2.10;;
18532;SDS011;9396;51.510;11.934;2022-08-01T14:05:10;2.03;;;1.93;;
18532;SDS011;9396;51.510;11.934;2022-08-01T14:07:36;2.57;;;2.37;;
18532;SDS011;9396;51.510;11.934;2022-08-01T14:10:03;2.13;;;1.93;;
18532;SDS011;9396;51.510;11.934;2022-08-01T14:12:30;2.67;;;1.93;;
18532;SDS011;9396;51.510;11.934;2022-08-01T14:14:57;1.80;;;1.70;;
18532;SDS011;9396;51.510;11.934;2022-08-01T14:17:25;1.70;;;1.60;;
18532;SDS011;9396;51.510;11.934;2022-08-01T14:19:52;3.20;;;1.40;;
18532;SDS011;9396;51.510;11.934;2022-08-01T14:22:19;1.27;;;1.10;;
18532;SDS011;9396;51.510;11.934;2022-08-01T14:24:46;1.30;;;1.20;;
18532;SDS011;9396;51.510;11.934;2022-08-01T14:27:14;1.57;;;1.47;;
18532;SDS011;9396;51.510;11.934;2022-08-01T14:29:40;1.43;;;1.33;;
18532;SDS011;9396;51.510;11.934;2022-08-01T14:32:07;2.07;;;1.27;;
18532;SDS011;9396;51.510;11.934;2022-08-01T14:34:35;1.10;;;1.00;;
18532;SDS011;9396;51.510;11.934;2022-08-01T14:37:02;1.40;;;1.10;;
18532;SDS011;9396;51.510;11.934;2022-08-01T14:39:28;3.87;;;1.00;;
18532;SDS011;9396;51.510;11.934;2022-08-01T14:41:55;1.30;;;1.17;;
18532;SDS011;9396;51.510;11.934;2022-08-01T14:44:21;1.30;;;1.20;;
18532;SDS011;9396;51.510;11.934;2022-08-01T14:46:48;1.50;;;1.10;;
18532;SDS011;9396;51.510;11.934;2022-08-01T14:49:15;1.20;;;1.10;;
18532;SDS011;9396;51.510;11.934;2022-08-01T14:51:43;1.50;;;1.10;;
18532;SDS011;9396;51.510;11.934;2022-08-01T14:54:09;1.03;;;0.93;;
18532;SDS011;9396;51.510;11.934;2022-08-01T14:56:36;1.40;;;1.30;;
18532;SDS011;9396;51.510;11.934;2022-08-01T14:59:03;1.20;;;1.07;;
18532;SDS011;9396;51.510;11.934;2022-08-01T15:01:29;1.20;;;1.10;;
18532;SDS011;9396;51.510;11.934;2022-08-01T15:03:56;2.47;;;1.60;;
18532;SDS011;9396;51.510;11.934;2022-08-01T15:06:23;1.90;;;1.33;;
18532;SDS011;9396;51.510;11.934;2022-08-01T15:08:51;2.00;;;1.23;;